createdAt,value
2023-03-22T00:01:26.478Z,100984.31
2023-03-22T00:03:54.194Z,100985.22
2023-03-22T00:06:27.460Z,100991.28
2023-03-22T00:08:56.550Z,100993.84
2023-03-22T00:11:24.499Z,100980.91
2023-03-22T00:13:52.497Z,100980.03
2023-03-22T00:16:21.216Z,100982.66
2023-03-22T00:18:54.145Z,100985.22
2023-03-22T00:21:23.465Z,100989.56
2023-03-22T00:23:51.778Z,100983.50
2023-03-22T00:26:20.913Z,100991.22
2023-03-22T00:28:49.646Z,100989.47
2023-03-22T00:31:22.153Z,100986.88
2023-03-22T00:33:50.256Z,100986.88
2023-03-22T00:36:17.847Z,100983.47
2023-03-22T00:38:47.913Z,100990.47
2023-03-22T00:41:17.735Z,100967.06
2023-03-22T00:43:52.063Z,100976.66
2023-03-22T00:46:21.222Z,100981.03
2023-03-22T00:48:49.120Z,100970.66
2023-03-22T00:51:17.274Z,100984.50
2023-03-22T00:53:45.922Z,100988.03
2023-03-22T00:56:13.612Z,100984.56
2023-03-22T00:58:41.863Z,100979.31
2023-03-22T01:01:11.373Z,100987.09
2023-03-22T01:03:40.443Z,100987.94
2023-03-22T01:06:09.427Z,100978.47
2023-03-22T01:08:37.194Z,100987.19
2023-03-22T01:11:07.123Z,100980.25
2023-03-22T01:13:36.472Z,100976.75
2023-03-22T01:16:04.789Z,100978.50
2023-03-22T01:18:34.804Z,100975.03
2023-03-22T01:21:02.647Z,100982.03
2023-03-22T01:23:30.785Z,100980.28
2023-03-22T01:25:58.343Z,100977.69
2023-03-22T01:28:27.297Z,100963.84
2023-03-22T01:30:56.228Z,100948.28
2023-03-22T01:33:23.988Z,100959.53
2023-03-22T01:35:53.736Z,100981.19
2023-03-22T01:38:21.696Z,100976.03
2023-03-22T01:40:50.784Z,100978.59
2023-03-22T01:43:19.472Z,100979.47
2023-03-22T01:45:49.623Z,100972.59
2023-03-22T01:48:26.431Z,100974.41
2023-03-22T01:51:00.899Z,100963.19
2023-03-22T01:53:30.623Z,100969.25
2023-03-22T01:55:58.838Z,100973.53
2023-03-22T01:58:26.797Z,100980.44
2023-03-22T02:00:55.054Z,100979.63
2023-03-22T02:03:32.506Z,100979.59
2023-03-22T02:06:01.678Z,100974.41
2023-03-22T02:08:32.397Z,100975.34
2023-03-22T02:11:03.609Z,100968.47
2023-03-22T02:13:42.493Z,100965.00
2023-03-22T02:16:32.774Z,100964.97
2023-03-22T02:19:26.531Z,100969.31
2023-03-22T02:22:19.259Z,100952.88
2023-03-22T02:25:33.545Z,100969.31
2023-03-22T02:28:29.202Z,100952.00
2023-03-22T02:31:14.286Z,100953.75
2023-03-22T02:34:08.398Z,100976.28
2023-03-22T02:37:21.746Z,100970.28
2023-03-22T02:39:54.607Z,100968.56
2023-03-22T02:42:42.487Z,100978.94
2023-03-22T02:45:16.673Z,100968.53
2023-03-22T02:47:53.054Z,100966.81
2023-03-22T02:50:25.387Z,100979.81
2023-03-22T02:52:59.561Z,100983.28
2023-03-22T02:55:32.880Z,100973.69
2023-03-22T02:58:06.755Z,100964.22
2023-03-22T03:00:36.546Z,100970.25
2023-03-22T03:03:08.660Z,100981.50
2023-03-22T03:05:38.120Z,100973.75
2023-03-22T03:08:07.092Z,100971.97
2023-03-22T03:10:37.130Z,100978.88
2023-03-22T03:13:05.423Z,100982.31
2023-03-22T03:15:33.596Z,100990.09
2023-03-22T03:18:17.438Z,100973.59
2023-03-22T03:20:56.446Z,100985.75
2023-03-22T03:23:32.567Z,100964.09
2023-03-22T03:26:07.980Z,100981.41
2023-03-22T03:28:43.866Z,100980.63
2023-03-22T03:31:20.594Z,100991.88
2023-03-22T03:33:56.769Z,100974.53
2023-03-22T03:36:26.756Z,100986.59
2023-03-22T03:38:57.188Z,100989.22
2023-03-22T03:41:30.305Z,100979.69
2023-03-22T03:43:59.411Z,100978.84
2023-03-22T03:46:27.845Z,100986.69
2023-03-22T03:48:57.490Z,100993.59
2023-03-22T03:51:27.580Z,100994.44
2023-03-22T03:53:55.424Z,101004.00
2023-03-22T03:56:22.964Z,100976.28
2023-03-22T03:58:52.516Z,100983.19
2023-03-22T04:01:20.713Z,100994.50
2023-03-22T04:03:48.963Z,100996.25
2023-03-22T04:06:16.886Z,101004.91
2023-03-22T04:08:44.564Z,100997.06
2023-03-22T04:11:14.733Z,101004.84
2023-03-22T04:13:43.059Z,101006.56
2023-03-22T04:16:12.385Z,101010.91
2023-03-22T04:18:41.958Z,101010.88
2023-03-22T04:21:09.835Z,101010.09
2023-03-22T04:23:38.005Z,101001.44
2023-03-22T04:26:05.812Z,101014.47
2023-03-22T04:28:33.604Z,101029.16
2023-03-22T04:31:03.224Z,101028.28
2023-03-22T04:33:35.537Z,101032.59
2023-03-22T04:36:04.603Z,101032.56
2023-03-22T04:38:33.938Z,101033.41
2023-03-22T04:41:03.723Z,101042.06
2023-03-22T04:43:38.895Z,101032.50
2023-03-22T04:46:07.912Z,101008.22
2023-03-22T04:48:37.147Z,101024.66
2023-03-22T04:51:07.470Z,101047.16
2023-03-22T04:53:36.573Z,101040.16
2023-03-22T04:56:06.651Z,101030.63
2023-03-22T04:58:37.211Z,101037.47
2023-03-22T05:01:08.596Z,101037.34
2023-03-22T05:03:38.896Z,101046.00
2023-03-22T05:06:09.286Z,101050.34
2023-03-22T05:08:42.054Z,101047.69
2023-03-22T05:11:13.368Z,101050.31
2023-03-22T05:13:41.013Z,101053.69
2023-03-22T05:16:10.969Z,101056.16
2023-03-22T05:18:40.175Z,101057.81
2023-03-22T05:21:12.650Z,101050.75
2023-03-22T05:23:40.629Z,101061.00
2023-03-22T05:26:08.372Z,101060.00
2023-03-22T05:28:36.957Z,101068.53
2023-03-22T05:31:05.534Z,101070.91
2023-03-22T05:33:35.210Z,101071.56
2023-03-22T05:36:04.475Z,101067.03
2023-03-22T05:38:32.172Z,101067.50
2023-03-22T05:41:00.045Z,101050.03
2023-03-22T05:43:28.358Z,101065.31
2023-03-22T05:45:56.052Z,101060.81
2023-03-22T05:48:24.179Z,101055.38
2023-03-22T05:50:51.870Z,101061.16
2023-03-22T05:53:25.164Z,101064.09
2023-03-22T05:55:53.013Z,101049.09
2023-03-22T05:58:23.686Z,101042.91
2023-03-22T06:00:51.273Z,101045.50
2023-03-22T06:03:19.604Z,101061.78
2023-03-22T06:05:47.436Z,101048.66
2023-03-22T06:08:14.973Z,101070.00
2023-03-22T06:10:44.121Z,101077.72
2023-03-22T06:13:12.289Z,101079.09
2023-03-22T06:15:41.856Z,101077.00
2023-03-22T06:18:09.668Z,101076.28
2023-03-22T06:20:37.847Z,101072.88
2023-03-22T06:23:05.682Z,101063.91
2023-03-22T06:25:33.534Z,101062.53
2023-03-22T06:28:02.979Z,101045.63
2023-03-22T06:30:30.986Z,101018.25
2023-03-22T06:33:04.988Z,101015.50
2023-03-22T06:35:33.045Z,101022.19
2023-03-22T06:38:01.132Z,100993.28
2023-03-22T06:40:28.842Z,100993.78
2023-03-22T06:42:56.648Z,101003.03
2023-03-22T06:45:25.648Z,101001.09
2023-03-22T06:47:53.517Z,101008.81
2023-03-22T06:50:21.237Z,101006.22
2023-03-22T06:52:49.489Z,101002.34
2023-03-22T06:55:17.430Z,101009.31
2023-03-22T06:57:45.293Z,101005.66
2023-03-22T07:00:14.284Z,100998.66
2023-03-22T07:02:50.919Z,101007.66
2023-03-22T07:05:21.063Z,100994.22
2023-03-22T07:07:48.631Z,101004.97
2023-03-22T07:10:17.075Z,100999.38
2023-03-22T07:12:45.521Z,101002.91
2023-03-22T07:15:13.281Z,101000.63
2023-03-22T07:17:41.579Z,100996.13
2023-03-22T07:20:11.619Z,101008.69
2023-03-22T07:22:39.330Z,101000.13
2023-03-22T07:25:08.701Z,100998.47
2023-03-22T07:27:52.968Z,101004.97
2023-03-22T07:30:20.956Z,100994.03
2023-03-22T07:32:55.462Z,100997.81
2023-03-22T07:35:26.776Z,100993.63
2023-03-22T07:37:54.677Z,100992.47
2023-03-22T07:40:22.561Z,100979.53
2023-03-22T07:42:50.884Z,100994.78
2023-03-22T07:45:19.549Z,101007.91
2023-03-22T07:47:47.857Z,100984.50
2023-03-22T07:50:16.499Z,101006.09
2023-03-22T07:52:45.855Z,101011.47
2023-03-22T07:55:14.798Z,100994.50
2023-03-22T07:57:43.276Z,101005.31
2023-03-22T08:00:11.848Z,101011.25
2023-03-22T08:02:43.951Z,101013.63
2023-03-22T08:05:11.744Z,101016.50
2023-03-22T08:07:39.400Z,101003.00
2023-03-22T08:10:09.724Z,101019.44
2023-03-22T08:12:38.160Z,101014.50
2023-03-22T08:15:09.752Z,101004.13
2023-03-22T08:17:37.816Z,101018.63
2023-03-22T08:20:07.041Z,101007.31
2023-03-22T08:22:34.969Z,101020.44
2023-03-22T08:25:02.911Z,101016.03
2023-03-22T08:27:32.575Z,101008.94
2023-03-22T08:30:01.075Z,101002.75
2023-03-22T08:32:31.028Z,101011.75
2023-03-22T08:34:59.411Z,101003.44
2023-03-22T08:37:27.154Z,101007.66
2023-03-22T08:39:54.942Z,101014.50
2023-03-22T08:42:22.500Z,101015.81
2023-03-22T08:44:51.433Z,101017.91
2023-03-22T08:47:19.468Z,101002.91
2023-03-22T08:49:47.026Z,101018.66
2023-03-22T08:52:14.589Z,101025.75
2023-03-22T08:54:42.803Z,101015.38
2023-03-22T08:57:13.230Z,101018.50
2023-03-22T08:59:41.857Z,101022.88
2023-03-22T09:02:11.156Z,101009.31
2023-03-22T09:04:40.126Z,101014.81
2023-03-22T09:07:09.163Z,101005.09
2023-03-22T09:09:37.599Z,101007.38
2023-03-22T09:12:05.785Z,101015.31
2023-03-22T09:14:33.428Z,101011.69
2023-03-22T09:17:02.580Z,101013.09
2023-03-22T09:19:32.059Z,101001.25
2023-03-22T09:21:59.727Z,100994.69
2023-03-22T09:24:27.731Z,101004.47
2023-03-22T09:26:55.347Z,101004.41
2023-03-22T09:29:24.682Z,100998.22
2023-03-22T09:31:53.547Z,101008.69
2023-03-22T09:34:23.209Z,100999.69
2023-03-22T09:36:52.902Z,101007.88
2023-03-22T09:39:21.003Z,101002.84
2023-03-22T09:41:51.758Z,100996.09
2023-03-22T09:44:27.640Z,100996.19
2023-03-22T09:46:57.579Z,101006.50
2023-03-22T09:49:29.434Z,100992.63
2023-03-22T09:51:59.065Z,101001.88
2023-03-22T09:54:33.284Z,100997.94
2023-03-22T09:57:07.455Z,100980.47
2023-03-22T09:59:42.827Z,100984.28
2023-03-22T10:02:31.695Z,100987.72
2023-03-22T10:05:09.578Z,100982.19
2023-03-22T10:07:57.990Z,100976.38
2023-03-22T10:10:26.886Z,100962.00
2023-03-22T10:13:00.668Z,100983.94
2023-03-22T10:15:32.482Z,100974.59
2023-03-22T10:18:02.868Z,100964.09
2023-03-22T10:20:38.214Z,100983.41
2023-03-22T10:23:12.862Z,100971.06
2023-03-22T10:25:44.351Z,100978.97
2023-03-22T10:28:21.500Z,100966.88
2023-03-22T10:30:54.043Z,100954.63
2023-03-22T10:33:31.563Z,100969.16
2023-03-22T10:36:00.764Z,100946.16
2023-03-22T10:38:32.240Z,100967.75
2023-03-22T10:41:01.435Z,100956.34
2023-03-22T10:43:33.178Z,100960.50
2023-03-22T10:46:03.496Z,100947.03
2023-03-22T10:48:35.283Z,100954.13
2023-03-22T10:51:03.935Z,100959.94
2023-03-22T10:53:38.466Z,100964.13
2023-03-22T10:56:12.725Z,100955.47
2023-03-22T10:58:40.566Z,100956.06
2023-03-22T11:01:10.932Z,100947.22
2023-03-22T11:03:41.488Z,100947.59
2023-03-22T11:06:16.551Z,100947.97
2023-03-22T11:08:49.029Z,100950.03
2023-03-22T11:11:21.045Z,100933.19
2023-03-22T11:13:53.092Z,100938.13
2023-03-22T11:16:22.814Z,100954.59
2023-03-22T11:18:50.486Z,100942.34
2023-03-22T11:21:21.237Z,100949.41
2023-03-22T11:23:57.433Z,100933.16
2023-03-22T11:26:29.353Z,100940.75
2023-03-22T11:29:08.285Z,100937.25
2023-03-22T11:31:59.187Z,100935.22
2023-03-22T11:34:29.561Z,100937.25
2023-03-22T11:37:00.778Z,100926.59
2023-03-22T11:39:30.388Z,100932.75
2023-03-22T11:41:59.422Z,100913.00
2023-03-22T11:44:31.979Z,100921.19
2023-03-22T11:47:02.241Z,100927.81
2023-03-22T11:49:39.586Z,100913.00
2023-03-22T11:52:11.562Z,100926.13
2023-03-22T11:54:42.964Z,100922.09
2023-03-22T11:57:14.986Z,100919.16
2023-03-22T11:59:47.732Z,100913.31
2023-03-22T12:02:22.734Z,100927.72
2023-03-22T12:04:54.197Z,100924.94
2023-03-22T12:07:22.416Z,100916.59
2023-03-22T12:09:59.126Z,100907.22
2023-03-22T12:12:32.015Z,100913.47
2023-03-22T12:15:05.086Z,100921.16
2023-03-22T12:17:38.219Z,100916.88
2023-03-22T12:20:19.833Z,100913.59
2023-03-22T12:22:53.020Z,100909.94
2023-03-22T12:25:25.669Z,100906.91
2023-03-22T12:27:58.593Z,100899.91
2023-03-22T12:30:29.486Z,100897.03
2023-03-22T12:33:05.791Z,100892.00
2023-03-22T12:35:39.002Z,100906.06
2023-03-22T12:38:19.174Z,100905.50
2023-03-22T12:40:50.048Z,100907.31
2023-03-22T12:43:25.827Z,100908.28
2023-03-22T12:45:59.226Z,100899.41
2023-03-22T12:48:36.454Z,100905.41
2023-03-22T12:51:06.852Z,100893.84
2023-03-22T12:53:37.226Z,100897.16
2023-03-22T12:56:07.690Z,100884.22
2023-03-22T12:58:35.485Z,100894.66
2023-03-22T13:01:16.475Z,100892.97
2023-03-22T13:03:46.558Z,100888.03
2023-03-22T13:06:31.611Z,100894.56
2023-03-22T13:09:12.735Z,100889.69
2023-03-22T13:11:44.890Z,100888.59
2023-03-22T13:14:34.172Z,100892.44
2023-03-22T13:17:02.079Z,100891.19
2023-03-22T13:19:36.400Z,100889.03
2023-03-22T13:22:51.651Z,100889.47
2023-03-22T13:25:30.819Z,100890.28
2023-03-22T13:28:02.183Z,100896.34
2023-03-22T13:30:33.677Z,100893.25
2023-03-22T13:33:12.864Z,100884.28
2023-03-22T13:35:44.808Z,100898.16
2023-03-22T13:38:20.213Z,100875.31
2023-03-22T13:40:59.716Z,100891.34
2023-03-22T13:43:35.570Z,100901.09
2023-03-22T13:46:12.150Z,100904.00
2023-03-22T13:48:50.941Z,100903.03
2023-03-22T13:51:26.412Z,100895.31
2023-03-22T13:53:59.470Z,100892.50
2023-03-22T13:56:33.139Z,100891.72
2023-03-22T13:59:11.398Z,100910.09
2023-03-22T14:01:43.839Z,100910.38
2023-03-22T14:04:16.837Z,100903.75
2023-03-22T14:06:52.658Z,100904.47
2023-03-22T14:09:26.009Z,100904.91
2023-03-22T14:12:00.161Z,100898.72
2023-03-22T14:14:32.602Z,100895.50
2023-03-22T14:17:05.030Z,100890.41
2023-03-22T14:19:34.479Z,100899.06
